Skip Navigation Links Skip Navigation Links

Current Weather

Des Moines Intl, Des Moines, Iowa

For information only: do not use for flight planning or navigation.
Latest weather
Observation time Tuesday, October 19, 2021 2:54 AM CDT
Local time Tuesday, October 19, 2021 3:57 AM CDT
Flight conditions Visual Meteorological Conditions
Winds
Wind direction South-Southeast (160°)
Wind speed 9 mph
Visibility 10 mi.
Sky condition
Ceiling 25,000 ft. broken clouds
Cloud layer few clouds 12,000 ft.
Cloud layer broken clouds 25,000 ft.
Temperature 53°F
Dewpoint 43°F
Altimeter 30.00 in.Hg
Derived measurements
Relative humidity 69%
Density altitude 611 ft.
Sea-level pressure 29.99 in.Hg
Remarks
Automated weather observing station with precipitation discriminator.
METAR KDSM 190754Z 16008KT 10SM FEW120 BKN250 12/06 A3000 RMK AO2 SLP155 T01170061

Settings

Location code

InnerDrive.Weather 4.0.6770.0 Release CLR 4.0.30319.42000
Copyright ©2018 Inner Drive Technology. All rights reserved. Portions Copyright ©1986-2018 David Braverman.

Find weather

Site navigation


Skip Navigation Links

Place info

Page info

PayPal - The safer, easier way to pay online!

Return home.

Copyright ©2021 Inner Drive Technology. Purveyors of fine, hand-crafted computer software. Page printed 2021-10-19T08:57:45 UTC.